createdAt,value
2023-05-01T00:03:00.443Z,69.00
2023-05-01T00:06:08.120Z,69.29
2023-05-01T00:09:11.258Z,69.77
2023-05-01T00:12:14.738Z,70.02
2023-05-01T00:15:17.531Z,70.74
2023-05-01T00:18:20.575Z,71.16
2023-05-01T00:21:23.301Z,71.52
2023-05-01T00:24:26.453Z,71.93
2023-05-01T00:27:29.225Z,72.46
2023-05-01T00:30:33.936Z,72.57
2023-05-01T00:33:36.863Z,73.04
2023-05-01T00:36:40.114Z,73.07
2023-05-01T00:39:42.898Z,73.11
2023-05-01T00:42:46.038Z,73.59
2023-05-01T00:45:48.880Z,73.74
2023-05-01T00:48:52.774Z,74.44
2023-05-01T00:51:55.746Z,74.22
2023-05-01T00:54:59.327Z,74.32
2023-05-01T00:58:02.415Z,75.73
2023-05-01T01:01:05.669Z,75.69
2023-05-01T01:04:08.654Z,75.60
2023-05-01T01:07:16.166Z,75.62
2023-05-01T01:10:37.150Z,76.92
2023-05-01T01:14:00.819Z,77.17
2023-05-01T01:17:13.295Z,77.07
2023-05-01T01:20:16.271Z,77.73
2023-05-01T01:23:57.248Z,77.20
2023-05-01T01:27:28.033Z,77.13
2023-05-01T01:30:59.311Z,77.18
2023-05-01T01:34:19.497Z,77.46
2023-05-01T01:37:33.041Z,77.89
2023-05-01T01:40:39.780Z,77.94
2023-05-01T01:43:51.088Z,78.48
2023-05-01T01:46:54.871Z,78.05
2023-05-01T01:50:04.499Z,78.26
2023-05-01T01:53:11.854Z,77.76
2023-05-01T01:56:17.692Z,77.58
2023-05-01T01:59:23.336Z,77.55
2023-05-01T02:02:29.613Z,77.13
2023-05-01T02:05:34.510Z,76.10
2023-05-01T02:08:38.480Z,75.60
2023-05-01T02:11:42.367Z,75.52
2023-05-01T02:14:46.791Z,74.35
2023-05-01T02:17:52.209Z,74.05
2023-05-01T02:20:58.765Z,73.98
2023-05-01T02:24:02.507Z,74.15
2023-05-01T02:27:11.481Z,73.96
2023-05-01T02:30:14.612Z,73.65
2023-05-01T02:33:17.694Z,73.51
2023-05-01T02:36:20.644Z,73.82
2023-05-01T02:39:23.875Z,74.17
2023-05-01T02:42:28.843Z,73.90
2023-05-01T02:45:35.802Z,73.52
2023-05-01T02:48:39.254Z,73.38
2023-05-01T02:51:43.641Z,73.39
2023-05-01T02:54:47.250Z,73.94
2023-05-01T02:57:53.171Z,73.68
2023-05-01T03:00:55.985Z,74.69
2023-05-01T03:03:59.979Z,74.59
2023-05-01T03:07:02.615Z,74.70
2023-05-01T03:10:07.959Z,75.23
2023-05-01T03:13:11.828Z,75.19
2023-05-01T03:16:14.842Z,75.00
2023-05-01T03:19:17.638Z,74.95
2023-05-01T03:22:20.681Z,74.89
2023-05-01T03:25:23.669Z,75.10
2023-05-01T03:28:27.444Z,75.45
2023-05-01T03:31:30.509Z,75.70
2023-05-01T03:34:34.351Z,76.09
2023-05-01T03:37:37.124Z,76.06
2023-05-01T03:40:40.351Z,75.58
2023-05-01T03:43:46.060Z,75.73
2023-05-01T03:46:49.795Z,75.44
2023-05-01T03:49:53.019Z,75.22
2023-05-01T03:52:56.672Z,75.33
2023-05-01T03:55:59.280Z,75.31
2023-05-01T03:59:03.077Z,75.69
2023-05-01T04:02:05.872Z,75.10
2023-05-01T04:05:09.518Z,74.85
2023-05-01T04:08:12.530Z,74.90
2023-05-01T04:11:16.658Z,75.30
2023-05-01T04:14:19.343Z,74.75
2023-05-01T04:17:22.328Z,74.91
2023-05-01T04:20:25.014Z,73.96
2023-05-01T04:23:28.071Z,73.55
2023-05-01T04:26:32.907Z,74.00
2023-05-01T04:29:36.957Z,73.45
2023-05-01T04:32:40.096Z,73.07
2023-05-01T04:35:43.814Z,72.17
2023-05-01T04:38:46.590Z,71.98
2023-05-01T04:41:50.080Z,72.03
2023-05-01T04:44:53.010Z,71.52
2023-05-01T04:47:56.388Z,70.87
2023-05-01T04:50:59.203Z,70.97
2023-05-01T04:54:04.803Z,70.54
2023-05-01T04:57:07.648Z,71.00
2023-05-01T05:00:11.399Z,70.13
2023-05-01T05:03:19.097Z,69.25
2023-05-01T05:06:22.837Z,68.80
2023-05-01T05:09:25.894Z,68.37
2023-05-01T05:12:29.466Z,67.34
2023-05-01T05:15:32.525Z,66.44
2023-05-01T05:18:35.795Z,65.94
2023-05-01T05:21:38.940Z,65.41
2023-05-01T05:24:41.908Z,64.90
2023-05-01T05:27:44.591Z,64.67
2023-05-01T05:30:47.778Z,63.98
2023-05-01T05:33:50.819Z,62.30
2023-05-01T05:36:54.288Z,62.71
2023-05-01T05:39:58.005Z,62.22
2023-05-01T05:43:01.319Z,61.06
2023-05-01T05:46:04.397Z,59.35
2023-05-01T05:49:07.909Z,60.23
2023-05-01T05:52:11.127Z,59.07
2023-05-01T05:55:14.882Z,57.90
2023-05-01T05:58:20.256Z,58.02
2023-05-01T06:01:23.908Z,57.42
2023-05-01T06:04:27.011Z,56.11
2023-05-01T06:07:30.631Z,55.66
2023-05-01T06:10:33.654Z,56.23
2023-05-01T06:13:37.073Z,56.45
2023-05-01T06:16:40.146Z,55.35
2023-05-01T06:19:42.917Z,55.63
2023-05-01T06:22:46.954Z,54.75
2023-05-01T06:25:50.089Z,54.67
2023-05-01T06:28:53.198Z,54.55
2023-05-01T06:31:56.188Z,55.11
2023-05-01T06:34:59.332Z,55.05
2023-05-01T06:38:03.064Z,54.89
2023-05-01T06:41:06.322Z,55.42
2023-05-01T06:44:09.100Z,55.08
2023-05-01T06:47:14.164Z,55.12
2023-05-01T06:50:17.059Z,55.28
2023-05-01T06:53:20.127Z,54.88
2023-05-01T06:56:22.989Z,54.95
2023-05-01T06:59:25.934Z,54.08
2023-05-01T07:02:28.571Z,54.11
2023-05-01T07:05:37.346Z,54.11
2023-05-01T07:08:40.225Z,54.16
2023-05-01T07:11:43.353Z,54.21
2023-05-01T07:14:46.301Z,53.92
2023-05-01T07:17:50.886Z,54.22
2023-05-01T07:20:53.624Z,53.18
2023-05-01T07:23:56.592Z,53.91
2023-05-01T07:27:00.207Z,53.46
2023-05-01T07:30:05.295Z,53.51
2023-05-01T07:33:08.234Z,53.45
2023-05-01T07:36:11.960Z,53.33
2023-05-01T07:39:14.991Z,53.76
2023-05-01T07:42:18.026Z,53.42
2023-05-01T07:45:20.742Z,53.07
2023-05-01T07:48:24.198Z,53.66
2023-05-01T07:51:27.038Z,53.68
2023-05-01T07:54:30.453Z,53.54
2023-05-01T07:57:36.056Z,52.78
2023-05-01T08:00:39.204Z,52.61
2023-05-01T08:03:42.410Z,52.27
2023-05-01T08:06:45.937Z,52.63
2023-05-01T08:09:49.113Z,52.48
2023-05-01T08:12:51.921Z,52.20
2023-05-01T08:15:55.196Z,51.95
2023-05-01T08:18:58.434Z,51.61
2023-05-01T08:22:01.446Z,51.66
2023-05-01T08:25:06.048Z,50.71
2023-05-01T08:28:09.854Z,50.96
2023-05-01T08:31:12.718Z,50.80
2023-05-01T08:34:17.346Z,50.60
2023-05-01T08:37:20.169Z,50.00
2023-05-01T08:40:24.040Z,49.67
2023-05-01T08:43:28.110Z,49.50
2023-05-01T08:46:45.066Z,49.08
2023-05-01T08:49:51.286Z,48.60
2023-05-01T08:52:56.553Z,48.33
2023-05-01T08:56:01.502Z,49.34
2023-05-01T08:59:10.912Z,48.90
2023-05-01T09:02:15.649Z,47.76
2023-05-01T09:05:20.180Z,47.06
2023-05-01T09:08:23.345Z,46.58
2023-05-01T09:11:26.637Z,47.81
2023-05-01T09:14:31.647Z,47.44
2023-05-01T09:17:37.015Z,47.17
2023-05-01T09:20:40.628Z,46.40
2023-05-01T09:23:43.710Z,46.01
2023-05-01T09:26:47.118Z,45.54
2023-05-01T09:29:50.192Z,45.11
2023-05-01T09:33:09.492Z,44.95
2023-05-01T09:36:17.724Z,45.22
2023-05-01T09:39:24.167Z,44.70
2023-05-01T09:42:27.317Z,43.79
2023-05-01T09:45:30.030Z,43.03
2023-05-01T09:48:35.748Z,42.71
2023-05-01T09:51:39.659Z,43.08
2023-05-01T09:54:43.492Z,42.04
2023-05-01T09:57:47.531Z,42.67
2023-05-01T10:00:50.921Z,40.93
2023-05-01T10:03:56.099Z,40.30
2023-05-01T10:07:12.233Z,40.53
2023-05-01T10:10:17.117Z,40.90
2023-05-01T10:13:19.811Z,40.14
2023-05-01T10:16:31.943Z,40.02
2023-05-01T10:19:34.739Z,39.42
2023-05-01T10:22:38.763Z,39.45
2023-05-01T10:25:42.361Z,39.78
2023-05-01T10:28:48.572Z,39.92
2023-05-01T10:31:51.483Z,40.12
2023-05-01T10:35:02.114Z,40.21
2023-05-01T10:38:07.894Z,39.90
2023-05-01T10:41:11.552Z,40.83
2023-05-01T10:44:22.165Z,40.75
2023-05-01T10:47:25.528Z,40.09
2023-05-01T10:50:28.980Z,39.93
2023-05-01T10:53:32.062Z,39.76
2023-05-01T10:56:34.752Z,40.05
2023-05-01T10:59:59.984Z,40.41
2023-05-01T11:03:31.735Z,39.66
2023-05-01T11:06:36.139Z,39.41
2023-05-01T11:09:49.070Z,39.56
2023-05-01T11:12:52.781Z,39.52
2023-05-01T11:15:55.604Z,39.79
2023-05-01T11:18:58.511Z,40.55
2023-05-01T11:22:01.757Z,40.94
2023-05-01T11:25:18.538Z,40.73
2023-05-01T11:28:21.719Z,39.53
2023-05-01T11:31:26.727Z,39.55
2023-05-01T11:34:36.247Z,39.18
2023-05-01T11:37:44.360Z,39.43
2023-05-01T11:40:55.602Z,39.55
2023-05-01T11:43:59.340Z,37.53
2023-05-01T11:47:02.321Z,37.89
2023-05-01T11:50:07.681Z,38.53
2023-05-01T11:53:13.107Z,38.17
2023-05-01T11:56:26.506Z,37.74
2023-05-01T11:59:30.682Z,37.12
2023-05-01T12:02:33.890Z,36.93
2023-05-01T12:05:38.723Z,35.66
2023-05-01T12:08:48.691Z,34.93
2023-05-01T12:11:53.365Z,36.55
2023-05-01T12:14:56.571Z,37.07
2023-05-01T12:17:59.913Z,35.94
2023-05-01T12:21:03.353Z,35.34
2023-05-01T12:24:09.716Z,33.89
2023-05-01T12:27:12.464Z,33.95
2023-05-01T12:30:25.104Z,34.79
2023-05-01T12:33:27.813Z,34.38
2023-05-01T12:36:33.784Z,34.26
2023-05-01T12:39:39.004Z,34.84
2023-05-01T12:42:42.671Z,36.02
2023-05-01T12:45:45.679Z,36.34
2023-05-01T12:48:49.314Z,36.43
2023-05-01T12:51:54.516Z,35.18
2023-05-01T12:55:05.518Z,34.67
2023-05-01T12:58:08.548Z,33.69
2023-05-01T13:01:11.764Z,34.71
2023-05-01T13:04:21.710Z,34.11
2023-05-01T13:07:24.886Z,34.24
2023-05-01T13:10:34.337Z,35.06
2023-05-01T13:13:37.707Z,34.23
2023-05-01T13:16:47.103Z,34.35
2023-05-01T13:19:55.925Z,34.31
2023-05-01T13:22:58.880Z,34.64
2023-05-01T13:26:02.197Z,34.49
2023-05-01T13:29:05.864Z,34.63
2023-05-01T13:32:11.488Z,33.91
2023-05-01T13:35:22.753Z,33.56
2023-05-01T13:38:25.921Z,33.95
2023-05-01T13:41:30.067Z,32.39
2023-05-01T13:44:33.141Z,32.33
2023-05-01T13:47:40.220Z,31.96
2023-05-01T13:50:43.507Z,34.21
2023-05-01T13:53:46.509Z,34.72
2023-05-01T13:56:49.647Z,34.47
2023-05-01T13:59:53.261Z,35.10
2023-05-01T14:02:56.699Z,35.38
2023-05-01T14:05:59.904Z,33.66
2023-05-01T14:09:04.132Z,32.77
2023-05-01T14:12:07.135Z,32.99
2023-05-01T14:15:12.131Z,33.51
2023-05-01T14:18:17.876Z,32.94
2023-05-01T14:21:21.514Z,33.18
2023-05-01T14:24:24.709Z,34.25
2023-05-01T14:27:27.887Z,34.59
2023-05-01T14:30:37.649Z,34.84
2023-05-01T14:33:42.850Z,34.17
2023-05-01T14:36:45.855Z,34.15
2023-05-01T14:39:48.550Z,33.41
2023-05-01T14:42:51.627Z,32.84
2023-05-01T14:45:55.429Z,33.71
2023-05-01T14:48:59.892Z,33.70
2023-05-01T14:52:02.552Z,33.66
2023-05-01T14:55:06.600Z,34.43
2023-05-01T14:58:09.379Z,34.75
2023-05-01T15:01:13.939Z,34.60
2023-05-01T15:04:17.437Z,34.95
2023-05-01T15:07:20.429Z,35.01
2023-05-01T15:10:24.065Z,34.46
2023-05-01T15:13:27.275Z,34.87
2023-05-01T15:16:31.748Z,35.30
2023-05-01T15:19:34.910Z,35.60
2023-05-01T15:22:39.580Z,35.25
2023-05-01T15:25:44.529Z,35.05
2023-05-01T15:28:47.248Z,34.94
2023-05-01T15:31:58.297Z,35.14
2023-05-01T15:35:07.870Z,35.27
2023-05-01T15:38:10.828Z,35.99
2023-05-01T15:41:13.569Z,36.64
2023-05-01T15:44:16.980Z,37.63
2023-05-01T15:47:19.568Z,37.42
2023-05-01T15:50:23.937Z,36.79
2023-05-01T15:53:26.662Z,36.56
2023-05-01T15:56:29.947Z,37.58
2023-05-01T15:59:32.727Z,37.35
2023-05-01T16:02:36.342Z,37.86
2023-05-01T16:05:39.461Z,38.41
2023-05-01T16:08:42.723Z,38.60
2023-05-01T16:11:45.785Z,39.23
2023-05-01T16:14:48.990Z,39.68
2023-05-01T16:17:52.223Z,39.92
2023-05-01T16:20:56.787Z,40.32
2023-05-01T16:24:01.832Z,40.05
2023-05-01T16:27:04.611Z,40.12
2023-05-01T16:30:09.227Z,40.91
2023-05-01T16:33:18.569Z,41.44
2023-05-01T16:36:22.345Z,41.87
2023-05-01T16:39:25.403Z,42.20
2023-05-01T16:42:28.511Z,42.49
2023-05-01T16:45:34.042Z,42.90
2023-05-01T16:48:37.228Z,43.20
2023-05-01T16:51:42.505Z,43.65
2023-05-01T16:54:45.494Z,43.80
2023-05-01T16:57:48.419Z,44.06
2023-05-01T17:00:51.542Z,44.36
2023-05-01T17:03:54.601Z,44.64
2023-05-01T17:06:58.073Z,45.52
2023-05-01T17:10:01.084Z,45.48
2023-05-01T17:13:06.091Z,46.16
2023-05-01T17:16:08.960Z,46.45
2023-05-01T17:19:12.102Z,47.17
2023-05-01T17:22:14.874Z,47.78
2023-05-01T17:25:18.188Z,48.06
2023-05-01T17:28:41.816Z,48.59
2023-05-01T17:31:48.460Z,49.16
2023-05-01T17:34:51.958Z,49.83
2023-05-01T17:37:55.634Z,52.21
2023-05-01T17:40:58.924Z,52.25
2023-05-01T17:44:02.323Z,52.81
2023-05-01T17:47:05.249Z,53.77
2023-05-01T17:50:13.771Z,54.37
2023-05-01T17:53:17.059Z,54.71
2023-05-01T17:56:20.572Z,55.02
2023-05-01T17:59:24.067Z,55.43
2023-05-01T18:02:27.445Z,56.09
2023-05-01T18:05:31.873Z,56.37
2023-05-01T18:08:35.865Z,56.75
2023-05-01T18:11:39.400Z,57.37
2023-05-01T18:14:42.651Z,57.66
2023-05-01T18:17:46.534Z,58.79
2023-05-01T18:20:49.430Z,58.92
2023-05-01T18:23:52.893Z,59.49
2023-05-01T18:26:55.982Z,60.25
2023-05-01T18:30:00.649Z,61.24
2023-05-01T18:33:05.357Z,61.46
2023-05-01T18:36:10.908Z,62.53
2023-05-01T18:39:13.902Z,62.78
2023-05-01T18:42:17.545Z,63.04
2023-05-01T18:45:21.126Z,62.59
2023-05-01T18:48:24.841Z,62.97
2023-05-01T18:51:28.945Z,62.97
2023-05-01T18:54:33.058Z,62.78
2023-05-01T18:57:36.644Z,62.93
2023-05-01T19:00:40.676Z,62.88
2023-05-01T19:03:44.975Z,63.49
2023-05-01T19:06:48.670Z,63.60
2023-05-01T19:09:53.144Z,63.85
2023-05-01T19:12:57.347Z,63.95
2023-05-01T19:16:01.491Z,64.45
2023-05-01T19:19:05.486Z,64.20
2023-05-01T19:22:10.086Z,64.49
2023-05-01T19:25:14.777Z,64.96
2023-05-01T19:28:17.686Z,66.09
2023-05-01T19:31:20.692Z,66.37
2023-05-01T19:34:24.233Z,66.83
2023-05-01T19:37:28.644Z,66.95
2023-05-01T19:40:33.729Z,66.46
2023-05-01T19:43:38.923Z,67.40
2023-05-01T19:46:42.490Z,66.75
2023-05-01T19:49:46.590Z,66.96
2023-05-01T19:52:50.113Z,68.19
2023-05-01T19:55:54.403Z,68.13
2023-05-01T19:58:57.740Z,68.15
2023-05-01T20:02:01.550Z,68.57
2023-05-01T20:05:05.324Z,68.75
2023-05-01T20:08:08.502Z,68.71
2023-05-01T20:11:11.561Z,69.17
2023-05-01T20:14:14.808Z,69.13
2023-05-01T20:17:18.462Z,69.64
2023-05-01T20:20:22.788Z,70.56
2023-05-01T20:23:25.802Z,70.71
2023-05-01T20:26:29.132Z,70.81
2023-05-01T20:29:32.482Z,70.30
2023-05-01T20:32:35.183Z,69.84
2023-05-01T20:35:39.527Z,70.69
2023-05-01T20:38:47.626Z,71.25
2023-05-01T20:41:51.075Z,71.18
2023-05-01T20:44:53.742Z,71.55
2023-05-01T20:47:57.732Z,71.75
2023-05-01T20:51:00.804Z,72.13
2023-05-01T20:54:03.966Z,72.46
2023-05-01T20:57:06.795Z,71.97
2023-05-01T21:00:10.773Z,71.80
2023-05-01T21:03:15.285Z,72.05
2023-05-01T21:06:18.556Z,72.01
2023-05-01T21:09:21.436Z,71.57
2023-05-01T21:12:24.467Z,72.19
2023-05-01T21:15:27.690Z,72.17
2023-05-01T21:18:33.560Z,72.46
2023-05-01T21:21:36.999Z,71.84
2023-05-01T21:24:42.498Z,72.08
2023-05-01T21:27:45.796Z,72.53
2023-05-01T21:30:49.541Z,73.01
2023-05-01T21:33:53.475Z,72.90
2023-05-01T21:36:56.640Z,73.19
2023-05-01T21:40:01.155Z,73.55
2023-05-01T21:43:05.986Z,74.07
2023-05-01T21:46:15.324Z,74.10
2023-05-01T21:49:23.123Z,73.85
2023-05-01T21:52:29.135Z,74.19
2023-05-01T21:55:32.904Z,74.60
2023-05-01T21:58:36.112Z,74.55
2023-05-01T22:01:41.211Z,74.55
2023-05-01T22:04:44.333Z,74.89
2023-05-01T22:07:47.466Z,75.20
2023-05-01T22:10:50.468Z,75.70
2023-05-01T22:13:53.108Z,76.23
2023-05-01T22:16:56.227Z,76.33
2023-05-01T22:19:59.260Z,77.00
2023-05-01T22:23:02.376Z,76.97
2023-05-01T22:26:05.036Z,76.91
2023-05-01T22:29:08.523Z,76.60
2023-05-01T22:32:11.488Z,76.62
2023-05-01T22:35:14.692Z,76.74
2023-05-01T22:38:17.331Z,76.59
2023-05-01T22:41:20.581Z,75.65
2023-05-01T22:44:23.307Z,76.25
2023-05-01T22:47:26.293Z,75.97
2023-05-01T22:50:29.232Z,75.65
2023-05-01T22:53:33.389Z,75.45
2023-05-01T22:56:36.501Z,75.73
2023-05-01T22:59:40.657Z,75.98
2023-05-01T23:02:43.584Z,76.09
2023-05-01T23:05:46.706Z,76.12
2023-05-01T23:08:53.909Z,76.18
2023-05-01T23:11:56.994Z,76.11
2023-05-01T23:14:59.996Z,76.43
2023-05-01T23:18:03.536Z,76.51
2023-05-01T23:21:06.720Z,76.99
2023-05-01T23:24:12.686Z,77.26
2023-05-01T23:27:19.745Z,77.30
2023-05-01T23:30:32.938Z,77.29
2023-05-01T23:33:38.698Z,77.60
2023-05-01T23:36:45.199Z,77.24
2023-05-01T23:39:48.555Z,77.45
2023-05-01T23:42:51.597Z,77.47
2023-05-01T23:45:54.241Z,76.92
2023-05-01T23:48:57.480Z,77.03
2023-05-01T23:52:00.149Z,76.83
2023-05-01T23:55:03.212Z,77.02
2023-05-01T23:58:06.820Z,76.75
